Time;durP1;ratioP1;P1;durP2;ratioP2;P2;SDS_P1;SDS_P2;PMS_P1;PMS_P2;Temp;Humidity;BMP_temperature;BMP_pressure;BME280_temperature;BME280_humidity;BME280_pressure;Samples;Min_cycle;Max_cycle;Signal;HPM_P1;HPM_P2
2021/04/21 00:00:48;;;;;;;9.82;7.53;;;;;;;0.17;93.34;92920.97;2098567;28;20024;-84
2021/04/21 00:01:49;;;;;;;8.23;6.90;;;;;;;0.16;94.30;92916.84;2098263;28;20065;-84
2021/04/21 00:02:52;;;;;;;7.13;6.28;;;;;;;0.10;92.77;92918.28;2098410;28;20028;-83
2021/04/21 00:03:54;;;;;;;7.93;6.97;;;;;;;0.13;93.05;92912.28;2105598;28;20028;-83
2021/04/21 00:04:58;;;;;;;7.32;6.35;;;;;;;0.10;93.57;92919.03;2095874;28;20092;-84
2021/04/21 00:06:00;;;;;;;9.05;7.22;;;;;;;0.06;93.61;92917.47;2090636;28;20703;-84
2021/04/21 00:07:00;;;;;;;7.22;6.53;;;;;;;-0.05;93.82;92914.66;2098664;28;20033;-84
2021/04/21 00:08:01;;;;;;;7.38;6.68;;;;;;;-0.05;94.87;92915.41;2106536;28;20135;-84
2021/04/21 00:09:06;;;;;;;8.52;7.18;;;;;;;-0.10;94.96;92912.34;2106569;28;20066;-83
2021/04/21 00:10:09;;;;;;;6.72;6.05;;;;;;;-0.19;94.90;92915.22;2107050;28;20028;-83
2021/04/21 00:11:10;;;;;;;8.00;6.72;;;;;;;-0.14;94.03;92914.16;2098466;28;20086;-84
2021/04/21 00:12:10;;;;;;;7.45;6.65;;;;;;;-0.11;94.07;92916.09;2089969;28;20040;-83
2021/04/21 00:13:11;;;;;;;7.07;6.38;;;;;;;-0.02;94.97;92913.97;2089787;28;20029;-83
2021/04/21 00:14:17;;;;;;;9.80;7.45;;;;;;;0.04;94.87;92914.41;2106451;28;20142;-84
2021/04/21 00:15:22;;;;;;;7.70;6.88;;;;;;;-0.05;94.24;92909.41;2109203;28;20053;-84
2021/04/21 00:16:23;;;;;;;8.40;6.47;;;;;;;-0.05;93.04;92915.41;2099407;28;20543;-84
2021/04/21 00:17:25;;;;;;;7.47;6.70;;;;;;;-0.05;94.27;92907.53;2106680;28;20028;-84
2021/04/21 00:18:27;;;;;;;7.88;7.07;;;;;;;0.02;94.00;92908.75;2114888;28;20041;-84
2021/04/21 00:19:31;;;;;;;10.02;6.75;;;;;;;0.05;93.80;92905.44;2098624;28;20032;-84
2021/04/21 00:20:33;;;;;;;7.68;6.95;;;;;;;-0.01;94.06;92908.34;2099000;28;20417;-84
2021/04/21 00:21:34;;;;;;;8.10;7.10;;;;;;;-0.04;93.02;92903.81;2107006;28;20024;-84
2021/04/21 00:22:36;;;;;;;8.18;7.38;;;;;;;-0.06;93.91;92908.66;2106394;28;20024;-83
2021/04/21 00:23:38;;;;;;;7.22;6.53;;;;;;;-0.10;93.85;92915.72;2103470;28;20376;-84
2021/04/21 00:24:41;;;;;;;8.02;7.05;;;;;;;-0.15;93.70;92907.38;2106351;28;20024;-84
2021/04/21 00:25:43;;;;;;;7.47;6.70;;;;;;;-0.11;94.03;92903.69;2104571;28;20730;-84
2021/04/21 00:26:46;;;;;;;8.07;7.20;;;;;;;-0.12;94.61;92902.19;2115068;28;20464;-84
2021/04/21 00:27:49;;;;;;;7.78;6.78;;;;;;;-0.19;93.50;92901.31;2123059;27;20031;-84
2021/04/21 00:28:52;;;;;;;8.02;7.22;;;;;;;-0.12;94.35;92910.06;2114651;28;20051;-84
2021/04/21 00:29:57;;;;;;;7.25;6.53;;;;;;;-0.10;94.50;92907.09;2098162;28;20035;-84
2021/04/21 00:31:03;;;;;;;9.18;7.15;;;;;;;-0.19;94.63;92904.72;2094447;28;20024;-84
2021/04/21 00:32:05;;;;;;;7.22;6.53;;;;;;;-0.16;94.45;92900.63;2091242;28;20507;-84
2021/04/21 00:33:06;;;;;;;7.97;6.70;;;;;;;-0.16;94.00;92903.25;2089897;28;20032;-85
2021/04/21 00:34:08;;;;;;;7.68;6.72;;;;;;;-0.15;94.47;92895.00;2089777;28;20055;-84
2021/04/21 00:35:12;;;;;;;7.97;7.18;;;;;;;-0.19;95.14;92904.72;2089990;28;20108;-84
2021/04/21 00:36:15;;;;;;;7.22;6.53;;;;;;;-0.23;95.11;92906.50;2090447;28;20029;-84
2021/04/21 00:37:16;;;;;;;8.82;6.93;;;;;;;-0.23;95.21;92903.88;2090292;28;20116;-84
2021/04/21 00:38:20;;;;;;;7.25;6.55;;;;;;;-0.25;95.09;92906.13;2096378;28;20059;-84
2021/04/21 00:39:22;;;;;;;7.05;6.35;;;;;;;-0.31;94.74;92904.88;2098361;28;20036;-84
2021/04/21 00:40:33;;;;;;;10.60;7.15;;;;;;;-0.24;95.47;92905.00;2089795;28;20029;-83
2021/04/21 00:41:42;;;;;;;7.88;6.82;;;;;;;-0.27;95.70;92900.44;2104444;28;20024;-84
2021/04/21 00:43:00;;;;;;;9.05;6.85;;;;;;;-0.30;95.33;92901.19;2110383;28;20019;-84
2021/04/21 00:44:19;;;;;;;8.05;6.72;;;;;;;-0.28;95.67;92885.81;2099838;28;20036;-83
2021/04/21 00:45:21;;;;;;;7.85;6.07;;;;;;;-0.33;96.31;92897.38;2102400;28;20121;-84
2021/04/21 00:46:24;;;;;;;7.70;6.90;;;;;;;-0.27;96.22;92892.56;2098186;28;20033;-84
2021/04/21 00:47:36;;;;;;;7.72;6.90;;;;;;;-0.34;95.77;92893.25;2098647;28;20082;-84
2021/04/21 00:49:03;;;;;;;7.55;6.55;;;;;;;-0.36;95.27;92884.19;2107803;28;20178;-84
2021/04/21 00:50:06;;;;;;;7.13;6.20;;;;;;;-0.30;95.49;92883.53;2110142;27;20035;-85
2021/04/21 00:51:12;;;;;;;7.68;6.43;;;;;;;-0.36;95.21;92879.69;2114109;28;20059;-85
2021/04/21 00:52:19;;;;;;;8.20;7.10;;;;;;;-0.42;96.16;92878.47;2115562;27;20067;-85
2021/04/21 00:53:34;;;;;;;7.05;6.45;;;;;;;-0.43;95.93;92882.22;2117134;27;20023;-85
2021/04/21 00:55:08;;;;;;;8.68;6.45;;;;;;;-0.43;95.67;92881.47;2107961;28;20047;-85
2021/04/21 00:56:42;;;;;;;7.25;6.45;;;;;;;-0.31;95.17;92881.25;2115525;27;20113;-84
2021/04/21 00:58:04;;;;;;;6.53;5.93;;;;;;;-0.40;94.57;92875.50;2103768;28;20473;-83
2021/04/21 00:59:15;;;;;;;6.85;6.18;;;;;;;-0.42;94.53;92881.09;2103062;28;20035;-84
2021/04/21 01:00:20;;;;;;;7.28;6.25;;;;;;;-0.53;94.23;92878.34;2107556;28;20122;-84
2021/04/21 01:01:21;;;;;;;7.50;6.80;;;;;;;-0.45;94.46;92884.44;2100769;28;20089;-84
2021/04/21 01:02:30;;;;;;;6.53;5.93;;;;;;;-0.45;95.78;92876.56;2098247;28;20844;-84
2021/04/21 01:03:31;;;;;;;9.02;6.85;;;;;;;-0.48;96.20;92879.13;2103298;28;20027;-84
2021/04/21 01:04:32;;;;;;;7.10;6.40;;;;;;;-0.54;95.96;92882.03;2093083;28;20142;-84
2021/04/21 01:05:40;;;;;;;7.10;6.40;;;;;;;-0.56;95.81;92884.28;2110250;28;20408;-84
2021/04/21 01:06:44;;;;;;;7.78;6.57;;;;;;;-0.56;96.37;92884.28;2117578;27;20076;-84
2021/04/21 01:07:46;;;;;;;7.85;6.65;;;;;;;-0.59;96.25;92884.97;2092669;28;20031;-84
2021/04/21 01:08:49;;;;;;;6.68;6.07;;;;;;;-0.65;96.36;92881.13;2096630;28;20146;-85
2021/04/21 01:09:54;;;;;;;7.18;6.57;;;;;;;-0.62;96.04;92882.28;2107165;28;20036;-84
2021/04/21 01:11:28;;;;;;;7.32;6.63;;;;;;;-0.70;96.37;92878.81;2106852;27;20028;-84
2021/04/21 01:12:30;;;;;;;7.00;6.28;;;;;;;-0.59;96.67;92877.09;2098951;27;20374;-84
2021/04/21 01:13:37;;;;;;;7.18;6.38;;;;;;;-0.65;96.29;92880.38;2123029;27;20039;-85
2021/04/21 01:14:43;;;;;;;7.18;6.47;;;;;;;-0.62;95.01;92880.41;2117773;27;20502;-84
2021/04/21 01:15:47;;;;;;;6.93;6.28;;;;;;;-0.62;95.17;92879.66;2104233;28;20077;-84
2021/04/21 01:16:53;;;;;;;9.18;6.53;;;;;;;-0.66;95.59;92870.97;2098407;28;20052;-84
2021/04/21 01:17:56;;;;;;;7.40;6.68;;;;;;;-0.62;95.96;92875.16;2106449;27;20496;-84
2021/04/21 01:19:20;;;;;;;7.07;6.38;;;;;;;-0.69;94.71;92869.06;2099213;28;20025;-84
2021/04/21 01:20:45;;;;;;;6.85;6.15;;;;;;;-0.69;94.96;92880.31;2098347;28;20051;-84
2021/04/21 01:21:50;;;;;;;7.20;6.50;;;;;;;-0.67;95.29;92867.59;2098871;28;20028;-84
2021/04/21 01:23:27;;;;;;;7.25;6.38;;;;;;;-0.55;95.39;92870.03;2098917;28;20043;-84
2021/04/21 01:25:12;;;;;;;7.05;6.35;;;;;;;-0.55;95.62;92869.28;2109942;28;20027;-84
2021/04/21 01:26:30;;;;;;;6.15;5.55;;;;;;;-0.60;95.34;92866.94;2086095;28;20077;-84
2021/04/21 01:27:57;;;;;;;7.95;6.18;;;;;;;-0.66;95.55;92871.75;2100241;28;20032;-84
2021/04/21 01:28:59;;;;;;;6.28;5.68;;;;;;;-0.75;95.94;92871.19;2113383;27;20034;-84
2021/04/21 01:30:00;;;;;;;6.20;5.60;;;;;;;-0.74;95.80;92867.47;2114856;28;20464;-84
2021/04/21 01:31:02;;;;;;;6.78;6.10;;;;;;;-0.70;95.85;92863.06;2106058;28;20028;-83
2021/04/21 01:32:24;;;;;;;7.68;6.55;;;;;;;-0.73;95.83;92866.38;2106291;28;20492;-84
2021/04/21 01:33:27;;;;;;;8.00;6.28;;;;;;;-0.73;96.75;92871.63;2109342;28;20035;-84
2021/04/21 01:34:32;;;;;;;7.82;6.55;;;;;;;-0.70;97.03;92870.94;2098283;28;20051;-84
2021/04/21 01:35:33;;;;;;;7.93;7.15;;;;;;;-0.70;96.67;92868.31;2115594;27;20400;-84
2021/04/21 01:36:35;;;;;;;8.00;7.30;;;;;;;-0.67;96.80;92859.72;2109891;28;20028;-83
2021/04/21 01:37:36;;;;;;;7.43;6.72;;;;;;;-0.70;96.37;92865.69;2097842;28;20032;-84
2021/04/21 01:38:39;;;;;;;7.45;6.68;;;;;;;-0.72;95.67;92864.50;2089598;28;20462;-83
2021/04/21 01:39:44;;;;;;;8.93;6.93;;;;;;;-0.72;95.74;92867.13;2106478;28;20110;-84
2021/04/21 01:40:46;;;;;;;7.35;6.65;;;;;;;-0.72;95.86;92872.38;2106137;28;20053;-83
2021/04/21 01:41:51;;;;;;;7.65;6.70;;;;;;;-0.78;95.42;92867.41;2103777;28;20375;-84
2021/04/21 01:42:54;;;;;;;7.32;6.63;;;;;;;-0.72;95.73;92873.13;2099000;28;20076;-84
2021/04/21 01:44:03;;;;;;;8.90;7.20;;;;;;;-0.70;95.44;92870.16;2098250;28;20382;-83
2021/04/21 01:45:05;;;;;;;7.60;6.90;;;;;;;-0.77;95.68;92866.31;2107866;28;20020;-84
2021/04/21 01:46:07;;;;;;;7.68;6.85;;;;;;;-0.79;95.20;92871.16;2114804;27;20032;-84
2021/04/21 01:47:11;;;;;;;7.57;6.80;;;;;;;-0.80;95.20;92861.00;2106036;28;20031;-84
2021/04/21 01:48:21;;;;;;;7.00;6.30;;;;;;;-0.84;95.55;92865.44;2093030;28;20184;-85
2021/04/21 01:49:21;;;;;;;7.60;6.90;;;;;;;-0.89;95.14;92873.59;2105881;28;20119;-84
2021/04/21 01:50:22;;;;;;;7.07;6.43;;;;;;;-0.89;95.75;92876.97;2089541;28;20029;-84
2021/04/21 01:51:32;;;;;;;8.32;7.13;;;;;;;-0.82;96.24;92869.22;2089179;28;20021;-84
2021/04/21 01:52:49;;;;;;;7.50;6.80;;;;;;;-0.82;95.85;92871.09;2100140;28;20020;-83
2021/04/21 01:54:05;;;;;;;8.18;6.57;;;;;;;-0.89;96.79;92869.09;2108305;28;20077;-84
2021/04/21 01:55:53;;;;;;;7.50;6.70;;;;;;;-0.89;97.02;92863.84;2116465;27;20492;-84
2021/04/21 01:57:01;;;;;;;8.50;6.25;;;;;;;-0.89;96.63;92873.59;2088934;28;20115;-83
2021/04/21 01:58:46;;;;;;;7.30;6.13;;;;;;;-0.94;95.93;92866.00;2080926;28;20037;-84
2021/04/21 01:59:54;;;;;;;7.00;6.20;;;;;;;-0.89;96.03;92868.34;2084497;28;20110;-84
2021/04/21 02:01:21;;;;;;;7.13;6.15;;;;;;;-0.91;95.81;92867.94;2099305;28;20454;-84
2021/04/21 02:02:28;;;;;;;7.90;6.18;;;;;;;-0.94;96.11;92866.00;2096060;28;20040;-83
2021/04/21 02:03:39;;;;;;;8.63;6.57;;;;;;;-0.95;95.61;92864.50;2090823;28;20094;-83
2021/04/21 02:04:57;;;;;;;8.20;7.30;;;;;;;-0.99;94.99;92874.16;2092076;28;20439;-83
2021/04/21 02:06:06;;;;;;;7.53;6.80;;;;;;;-1.05;95.90;92863.97;2106581;28;20087;-84
2021/04/21 02:07:45;;;;;;;7.15;6.45;;;;;;;-1.10;96.15;92866.88;2092212;28;20102;-82
2021/04/21 02:09:23;;;;;;;7.53;6.32;;;;;;;-1.11;96.03;92870.59;2101615;28;20031;-84
2021/04/21 02:10:32;;;;;;;7.75;5.93;;;;;;;-1.11;96.62;92864.59;2110740;28;20484;-83
2021/04/21 02:11:36;;;;;;;8.32;6.85;;;;;;;-1.07;97.00;92874.03;2106563;28;20663;-83
2021/04/21 02:12:42;;;;;;;7.97;6.78;;;;;;;-1.05;96.86;92877.09;2095201;28;20036;-82
2021/04/21 02:13:56;;;;;;;7.60;6.80;;;;;;;-1.08;97.47;92869.16;2098644;28;20028;-84
2021/04/21 02:15:11;;;;;;;6.93;6.22;;;;;;;-1.13;96.52;92870.19;2099180;28;20028;-83
2021/04/21 02:16:22;;;;;;;7.97;6.60;;;;;;;-1.15;96.12;92874.25;2093086;28;20516;-84
2021/04/21 02:17:35;;;;;;;7.03;6.32;;;;;;;-1.14;95.90;92876.56;2101709;28;20465;-83
2021/04/21 02:19:09;;;;;;;7.28;6.55;;;;;;;-1.17;95.97;92873.84;2098536;28;20033;-83
2021/04/21 02:20:31;;;;;;;7.72;6.43;;;;;;;-1.20;95.92;92877.91;2106662;28;20027;-83
2021/04/21 02:21:50;;;;;;;7.43;6.35;;;;;;;-1.18;96.15;92878.34;2099106;28;20850;-84
2021/04/21 02:23:06;;;;;;;7.25;6.60;;;;;;;-1.16;96.74;92881.38;2103901;28;20455;-85
2021/04/21 02:24:18;;;;;;;7.63;6.82;;;;;;;-1.12;96.73;92866.47;2114193;28;20817;-84
2021/04/21 02:25:37;;;;;;;7.25;6.55;;;;;;;-1.15;96.83;92871.63;2099726;28;20463;-84
2021/04/21 02:26:57;;;;;;;7.38;6.57;;;;;;;-1.21;95.99;92879.03;2104821;28;20035;-84
2021/04/21 02:28:03;;;;;;;6.95;6.35;;;;;;;-1.23;96.27;92875.22;2105149;28;20028;-85
2021/04/21 02:29:21;;;;;;;7.30;6.60;;;;;;;-1.23;96.39;92870.00;2098343;28;20108;-84
2021/04/21 02:30:42;;;;;;;8.07;7.28;;;;;;;-1.21;96.88;92873.03;2108275;28;20020;-84
2021/04/21 02:31:54;;;;;;;10.75;6.93;;;;;;;-1.28;97.41;92876.28;2105832;28;20453;-84
2021/04/21 02:33:28;;;;;;;8.10;7.20;;;;;;;-1.23;97.23;92870.75;2114218;28;20052;-85
2021/04/21 02:34:31;;;;;;;7.40;6.60;;;;;;;-1.22;96.76;92877.53;2113952;28;20452;-84
2021/04/21 02:35:54;;;;;;;8.75;7.07;;;;;;;-1.29;96.52;92874.75;2106022;28;20518;-84
2021/04/21 02:37:05;;;;;;;9.13;6.43;;;;;;;-1.30;96.91;92866.13;2107519;28;20408;-84
2021/04/21 02:38:24;;;;;;;7.47;6.68;;;;;;;-1.33;97.18;92876.56;2092223;28;20448;-84
2021/04/21 02:39:51;;;;;;;7.57;6.43;;;;;;;-1.38;96.55;92872.34;2099389;28;20023;-84
2021/04/21 02:41:05;;;;;;;7.90;7.03;;;;;;;-1.33;97.02;92871.31;2107222;28;20042;-85
2021/04/21 02:42:17;;;;;;;7.38;6.68;;;;;;;-1.26;97.29;92868.84;2115852;28;20059;-84
2021/04/21 02:43:47;;;;;;;8.50;6.38;;;;;;;-1.31;96.69;92872.50;2107337;28;20982;-83
2021/04/21 02:45:25;;;;;;;7.50;6.35;;;;;;;-1.32;96.80;92876.22;2099090;28;20438;-84
2021/04/21 02:46:52;;;;;;;7.78;6.50;;;;;;;-1.29;96.68;92864.28;2075218;28;20033;-84
2021/04/21 02:48:10;;;;;;;7.35;6.57;;;;;;;-1.36;96.82;92872.78;2110269;28;20445;-84
2021/04/21 02:49:21;;;;;;;7.45;6.75;;;;;;;-1.29;97.15;92869.53;2094976;28;20971;-84
2021/04/21 02:50:30;;;;;;;7.65;6.50;;;;;;;-1.29;96.71;92872.91;2094209;28;20556;-84
2021/04/21 02:51:46;;;;;;;9.77;6.90;;;;;;;-1.30;96.92;92868.00;2095079;28;20680;-84
2021/04/21 02:53:01;;;;;;;7.70;6.85;;;;;;;-1.32;96.83;92864.97;2105591;28;20580;-84
2021/04/21 02:54:14;;;;;;;7.70;6.93;;;;;;;-1.28;97.79;92868.41;2109369;28;20039;-84
2021/04/21 02:55:33;;;;;;;7.93;7.10;;;;;;;-1.28;97.36;92866.53;2115961;28;20488;-84
2021/04/21 02:56:39;;;;;;;7.90;7.10;;;;;;;-1.33;97.04;92866.81;2105617;28;20024;-83
2021/04/21 02:57:39;;;;;;;7.88;7.13;;;;;;;-1.33;96.15;92858.97;2111397;28;20821;-84
2021/04/21 02:58:42;;;;;;;8.02;7.22;;;;;;;-1.35;95.79;92860.44;2110867;28;20445;-84
2021/04/21 02:59:53;;;;;;;8.98;6.75;;;;;;;-1.41;96.64;92864.41;2097939;28;20030;-84
2021/04/21 03:01:04;;;;;;;7.45;6.68;;;;;;;-1.42;96.98;92861.03;2108509;28;20422;-84
2021/04/21 03:02:08;;;;;;;9.57;7.85;;;;;;;-1.44;96.36;92852.78;2106799;28;20442;-84
2021/04/21 03:03:32;;;;;;;7.50;6.72;;;;;;;-1.41;96.67;92857.31;2097465;28;20431;-84
2021/04/21 03:04:44;;;;;;;8.48;7.22;;;;;;;-1.38;97.07;92855.88;2094235;28;20567;-83
2021/04/21 03:06:11;;;;;;;8.40;7.28;;;;;;;-1.35;96.46;92857.81;2106420;28;20483;-84
2021/04/21 03:07:22;;;;;;;7.03;6.35;;;;;;;-1.38;97.00;92859.25;2098868;28;21001;-83
2021/04/21 03:08:28;;;;;;;8.30;7.30;;;;;;;-1.36;96.82;92857.06;2108204;28;20170;-84
2021/04/21 03:09:46;;;;;;;7.97;7.13;;;;;;;-1.35;95.95;92853.31;2107796;28;20442;-83
2021/04/21 03:10:55;;;;;;;7.65;6.90;;;;;;;-1.40;95.77;92850.97;2103381;28;20447;-84
2021/04/21 03:11:59;;;;;;;8.45;7.32;;;;;;;-1.37;96.29;92857.38;2100002;28;20465;-83
2021/04/21 03:13:11;;;;;;;8.30;7.43;;;;;;;-1.28;96.50;92856.06;2100053;28;20028;-84
2021/04/21 03:14:27;;;;;;;7.97;6.93;;;;;;;-1.36;95.46;92856.28;2108644;28;20519;-84
2021/04/21 03:15:29;;;;;;;7.93;6.95;;;;;;;-1.39;95.54;92849.13;2102233;28;20447;-83
2021/04/21 03:16:45;;;;;;;8.38;7.38;;;;;;;-1.43;96.04;92859.53;2095046;28;20525;-83
2021/04/21 03:17:49;;;;;;;8.45;7.20;;;;;;;-1.47;96.94;92858.69;2094667;28;20111;-83
2021/04/21 03:18:50;;;;;;;8.30;7.47;;;;;;;-1.42;97.24;92857.66;2095520;28;20024;-84
2021/04/21 03:19:54;;;;;;;8.70;7.68;;;;;;;-1.42;97.79;92863.66;2098963;28;20858;-84
2021/04/21 03:21:10;;;;;;;8.38;7.47;;;;;;;-1.46;97.39;92856.84;2099577;28;20915;-84
2021/04/21 03:22:14;;;;;;;8.00;7.20;;;;;;;-1.49;96.87;92858.31;2095176;28;20055;-83
2021/04/21 03:23:16;;;;;;;10.68;7.65;;;;;;;-1.51;97.74;92857.88;2099650;28;20450;-84
2021/04/21 03:24:23;;;;;;;8.75;7.68;;;;;;;-1.51;97.83;92857.88;2098769;28;20028;-83
2021/04/21 03:25:33;;;;;;;8.80;7.22;;;;;;;-1.48;97.43;92857.19;2094206;28;20536;-84
2021/04/21 03:26:36;;;;;;;9.48;8.10;;;;;;;-1.47;97.27;92863.19;2097157;28;21029;-84
2021/04/21 03:27:40;;;;;;;9.27;7.85;;;;;;;-1.48;97.38;92854.56;2099151;28;20075;-83
2021/04/21 03:28:46;;;;;;;8.13;7.30;;;;;;;-1.44;97.01;92862.50;2099660;28;20454;-83
2021/04/21 03:29:49;;;;;;;7.85;7.07;;;;;;;-1.45;97.13;92859.09;2107615;28;20472;-83
2021/04/21 03:30:55;;;;;;;8.48;7.57;;;;;;;-1.49;96.94;92855.69;2092511;28;20551;-83
2021/04/21 03:31:58;;;;;;;8.15;7.30;;;;;;;-1.48;97.44;92853.81;2107411;27;20430;-82
2021/04/21 03:33:13;;;;;;;10.18;7.60;;;;;;;-1.41;97.22;92848.69;2115392;28;20048;-83
2021/04/21 03:34:17;;;;;;;9.13;7.78;;;;;;;-1.45;97.07;92850.50;2108401;28;20474;-83
2021/04/21 03:35:19;;;;;;;8.15;7.32;;;;;;;-1.48;98.04;92853.81;2107783;27;20478;-83
2021/04/21 03:36:20;;;;;;;8.40;7.47;;;;;;;-1.48;97.65;92856.44;2106892;28;20024;-83
2021/04/21 03:37:45;;;;;;;8.95;7.70;;;;;;;-1.52;97.24;92857.13;2094168;28;20878;-83
2021/04/21 03:38:47;;;;;;;9.27;7.80;;;;;;;-1.56;97.19;92855.53;2105347;28;20027;-84
2021/04/21 03:39:50;;;;;;;8.25;7.47;;;;;;;-1.48;97.20;92851.19;2104988;28;20477;-83
2021/04/21 03:40:51;;;;;;;8.30;7.53;;;;;;;-1.52;96.69;92846.63;2090917;28;20498;-83
2021/04/21 03:41:52;;;;;;;9.23;8.32;;;;;;;-1.57;96.80;92846.16;2098109;28;20426;-83
2021/04/21 03:42:53;;;;;;;9.10;8.18;;;;;;;-1.56;97.23;92840.56;2090257;28;20029;-83
2021/04/21 03:43:54;;;;;;;9.25;7.80;;;;;;;-1.53;96.66;92849.63;2098699;28;20020;-85
2021/04/21 03:44:54;;;;;;;9.13;8.25;;;;;;;-1.56;96.58;92847.69;2106981;28;20119;-84
2021/04/21 03:45:55;;;;;;;10.63;8.27;;;;;;;-1.58;97.06;92844.63;2115888;27;20766;-83
2021/04/21 03:46:56;;;;;;;9.90;7.93;;;;;;;-1.56;97.76;92843.19;2107050;28;20035;-84
2021/04/21 03:47:57;;;;;;;9.82;8.00;;;;;;;-1.54;97.24;92845.44;2098550;28;20067;-83
2021/04/21 03:48:59;;;;;;;8.95;8.05;;;;;;;-1.53;97.50;92847.75;2090561;28;20112;-84
2021/04/21 03:50:03;;;;;;;9.10;8.20;;;;;;;-1.55;97.95;92847.31;2094634;28;20024;-84
2021/04/21 03:51:05;;;;;;;9.30;8.15;;;;;;;-1.62;96.26;92849.81;2099161;28;20423;-84
2021/04/21 03:52:07;;;;;;;9.70;7.95;;;;;;;-1.56;96.94;92848.44;2115325;28;20441;-84
2021/04/21 03:53:09;;;;;;;11.07;8.57;;;;;;;-1.60;97.01;92847.59;2107548;28;20795;-84
2021/04/21 03:54:10;;;;;;;8.95;7.88;;;;;;;-1.65;97.28;92841.88;2115288;28;21146;-84
2021/04/21 03:55:12;;;;;;;10.90;8.65;;;;;;;-1.60;97.20;92841.59;2106844;28;20439;-84
2021/04/21 03:56:17;;;;;;;11.02;7.93;;;;;;;-1.67;96.51;92850.06;2091577;28;20447;-84
2021/04/21 03:57:19;;;;;;;8.98;8.07;;;;;;;-1.65;96.52;92847.13;2107461;28;20454;-84
2021/04/21 03:58:22;;;;;;;8.90;8.00;;;;;;;-1.64;96.25;92844.16;2096095;28;20038;-85
2021/04/21 03:59:23;;;;;;;10.23;8.32;;;;;;;-1.58;96.26;92848.03;2093105;28;20444;-83
2021/04/21 04:00:25;;;;;;;9.25;8.27;;;;;;;-1.62;95.90;92841.97;2098381;28;20032;-83
2021/04/21 04:01:26;;;;;;;9.43;8.48;;;;;;;-1.62;96.16;92841.97;2095529;28;20549;-84
2021/04/21 04:02:30;;;;;;;10.52;8.65;;;;;;;-1.58;97.03;92844.63;2098327;28;20443;-84
2021/04/21 04:03:32;;;;;;;10.82;9.20;;;;;;;-1.57;97.14;92843.53;2111271;28;20071;-85
2021/04/21 04:04:39;;;;;;;11.50;9.60;;;;;;;-1.58;97.34;92853.28;2102702;28;20450;-85
2021/04/21 04:05:48;;;;;;;16.23;9.60;;;;;;;-1.58;97.16;92842.78;2102159;28;20467;-83
2021/04/21 04:06:50;;;;;;;11.68;9.52;;;;;;;-1.60;97.48;92844.22;2098419;28;20459;-84
2021/04/21 04:07:54;;;;;;;9.80;8.82;;;;;;;-1.55;97.66;92851.81;2098530;28;20470;-84
2021/04/21 04:09:04;;;;;;;11.85;8.98;;;;;;;-1.54;96.64;92848.06;2106273;27;20477;-83
2021/04/21 04:10:07;;;;;;;10.20;9.15;;;;;;;-1.59;96.07;92853.59;2108058;28;20438;-83
2021/04/21 04:11:12;;;;;;;10.57;9.02;;;;;;;-1.63;96.21;92856.16;2098289;28;20037;-84
2021/04/21 04:12:14;;;;;;;12.15;8.88;;;;;;;-1.63;96.28;92856.16;2106269;28;21027;-84
2021/04/21 04:13:16;;;;;;;12.13;9.93;;;;;;;-1.66;96.91;92850.88;2100011;28;20442;-83
2021/04/21 04:14:19;;;;;;;10.63;9.45;;;;;;;-1.71;96.88;92854.50;2106672;28;20491;-83
2021/04/21 04:15:22;;;;;;;10.30;9.20;;;;;;;-1.73;97.29;92848.09;2107427;27;20913;-83
2021/04/21 04:16:23;;;;;;;12.32;8.70;;;;;;;-1.76;97.21;92852.16;2106340;28;20484;-83
2021/04/21 04:17:25;;;;;;;11.45;8.85;;;;;;;-1.80;97.55;92857.34;2089855;28;20464;-84
2021/04/21 04:18:27;;;;;;;11.80;9.05;;;;;;;-1.77;96.67;92846.16;2103672;28;20089;-83
2021/04/21 04:19:30;;;;;;;12.73;9.40;;;;;;;-1.72;96.94;92849.59;2105019;27;20450;-84
2021/04/21 04:20:33;;;;;;;10.65;9.23;;;;;;;-1.76;97.41;92846.91;2103065;28;20490;-83
2021/04/21 04:21:37;;;;;;;11.88;10.30;;;;;;;-1.76;97.55;92862.63;2094765;28;20016;-83
2021/04/21 04:22:42;;;;;;;12.48;10.60;;;;;;;-1.74;97.48;92854.44;2107469;27;20460;-83
2021/04/21 04:23:44;;;;;;;11.20;9.55;;;;;;;-1.71;97.38;92849.28;2106428;28;20016;-84
2021/04/21 04:24:49;;;;;;;11.98;9.75;;;;;;;-1.69;97.15;92848.91;2096492;28;20048;-83
2021/04/21 04:25:51;;;;;;;12.00;9.10;;;;;;;-1.66;97.22;92854.22;2096769;28;20474;-84
2021/04/21 04:26:56;;;;;;;12.13;9.35;;;;;;;-1.66;97.27;92845.63;2098238;28;20458;-83
2021/04/21 04:27:59;;;;;;;12.68;9.57;;;;;;;-1.66;97.27;92849.00;2106221;28;20540;-83
2021/04/21 04:29:02;;;;;;;10.40;9.30;;;;;;;-1.66;97.36;92851.63;2090857;28;20440;-84
2021/04/21 04:30:03;;;;;;;11.18;9.13;;;;;;;-1.67;97.02;92859.81;2090422;28;20471;-84
2021/04/21 04:31:06;;;;;;;9.77;8.77;;;;;;;-1.67;96.63;92857.94;2106434;28;20381;-84
2021/04/21 04:32:11;;;;;;;10.32;9.32;;;;;;;-1.70;96.90;92858.66;2107321;27;20109;-83
2021/04/21 04:33:15;;;;;;;12.85;9.57;;;;;;;-1.67;97.55;92852.69;2106318;28;20118;-83
2021/04/21 04:34:18;;;;;;;10.32;9.23;;;;;;;-1.74;97.94;92852.56;2098424;28;21009;-84
2021/04/21 04:35:18;;;;;;;11.90;10.65;;;;;;;-1.67;96.51;92854.56;2090291;28;20431;-84
2021/04/21 04:36:19;;;;;;;15.68;10.63;;;;;;;-1.63;96.66;92861.38;2089854;28;20431;-84
2021/04/21 04:37:21;;;;;;;11.23;9.75;;;;;;;-1.67;96.60;92863.19;2090186;28;20500;-84
2021/04/21 04:38:22;;;;;;;11.18;9.98;;;;;;;-1.65;97.02;92862.84;2098136;28;20036;-83
2021/04/21 04:39:23;;;;;;;10.90;9.50;;;;;;;-1.62;96.94;92855.06;2098824;28;20525;-84
2021/04/21 04:40:25;;;;;;;11.10;9.98;;;;;;;-1.62;97.93;92859.56;2100478;28;20028;-84
2021/04/21 04:41:28;;;;;;;10.43;9.30;;;;;;;-1.58;97.47;92865.59;2104579;28;20438;-83
2021/04/21 04:42:29;;;;;;;10.93;9.82;;;;;;;-1.58;97.29;92862.97;2099491;28;20450;-83
2021/04/21 04:43:30;;;;;;;11.30;9.10;;;;;;;-1.59;97.05;92856.22;2106421;28;20466;-83
2021/04/21 04:44:35;;;;;;;11.27;9.05;;;;;;;-1.61;97.07;92858.44;2106831;28;20020;-84
2021/04/21 04:45:41;;;;;;;10.85;9.63;;;;;;;-1.58;96.86;92858.50;2111502;28;21070;-84
2021/04/21 04:46:49;;;;;;;10.00;8.93;;;;;;;-1.59;95.68;92856.22;2110266;28;20484;-85
2021/04/21 04:47:55;;;;;;;10.27;9.18;;;;;;;-1.59;96.34;92866.69;2096270;28;20558;-84
2021/04/21 04:49:06;;;;;;;10.85;9.00;;;;;;;-1.55;96.50;92862.28;2095569;28;20497;-84
2021/04/21 04:50:13;;;;;;;10.25;9.15;;;;;;;-1.52;96.71;92867.59;2098212;28;20792;-83
2021/04/21 04:51:16;;;;;;;11.32;8.70;;;;;;;-1.58;97.03;92858.50;2101670;28;20485;-83
2021/04/21 04:52:20;;;;;;;10.43;8.98;;;;;;;-1.55;96.77;92862.28;2095862;28;20536;-84
2021/04/21 04:53:21;;;;;;;11.63;8.95;;;;;;;-1.53;97.40;92865.34;2101800;28;20465;-85
2021/04/21 04:54:22;;;;;;;10.38;9.30;;;;;;;-1.52;97.54;92859.75;2094967;28;20462;-84
2021/04/21 04:55:33;;;;;;;11.88;9.80;;;;;;;-1.54;96.98;92867.22;2093475;28;20506;-84
2021/04/21 04:56:37;;;;;;;11.10;9.45;;;;;;;-1.55;97.05;92865.66;2111912;28;20372;-84
2021/04/21 04:57:58;;;;;;;10.13;9.07;;;;;;;-1.52;97.32;92861.59;2102638;28;20866;-84
2021/04/21 04:59:05;;;;;;;10.80;9.15;;;;;;;-1.49;96.98;92868.78;2106318;28;20440;-86
2021/04/21 05:00:17;;;;;;;11.73;8.95;;;;;;;-1.51;96.83;92863.13;2112590;28;20510;-84
2021/04/21 05:01:21;;;;;;;12.70;9.82;;;;;;;-1.48;98.10;92865.06;2103207;28;20440;-84
2021/04/21 05:02:34;;;;;;;14.18;10.45;;;;;;;-1.44;97.46;92870.38;2095775;28;20032;-84
2021/04/21 05:03:51;;;;;;;10.57;8.82;;;;;;;-1.41;98.73;92865.19;2099108;28;20035;-84
2021/04/21 05:05:09;;;;;;;13.23;10.07;;;;;;;-1.40;98.66;92871.19;2115273;27;20027;-84
2021/04/21 05:06:19;;;;;;;10.05;9.00;;;;;;;-1.36;98.68;92870.16;2113889;28;20008;-84
2021/04/21 05:07:28;;;;;;;13.57;9.65;;;;;;;-1.31;99.04;92871.75;2104476;28;20990;-84
2021/04/21 05:08:44;;;;;;;12.43;9.77;;;;;;;-1.30;99.04;92868.00;2114363;27;20028;-84
2021/04/21 05:10:03;;;;;;;11.82;9.98;;;;;;;-1.30;98.31;92868.00;2114155;28;20043;-84
2021/04/21 05:11:08;;;;;;;10.98;9.70;;;;;;;-1.28;97.97;92874.41;2106217;28;20032;-84
2021/04/21 05:12:22;;;;;;;12.27;9.73;;;;;;;-1.23;97.88;92876.00;2104563;28;20509;-84
2021/04/21 05:13:24;;;;;;;11.77;10.00;;;;;;;-1.19;98.15;92876.06;2108432;28;20027;-84
2021/04/21 05:14:25;;;;;;;12.98;10.70;;;;;;;-1.19;98.67;92873.44;2097471;28;20458;-84
2021/04/21 05:15:51;;;;;;;11.43;10.23;;;;;;;-1.15;98.81;92869.00;2108146;27;20360;-84
2021/04/21 05:16:54;;;;;;;11.65;9.30;;;;;;;-1.08;98.85;92872.53;2084016;28;20899;-84
2021/04/21 05:17:57;;;;;;;11.55;10.15;;;;;;;-1.08;99.19;92872.53;2103666;28;20035;-83
2021/04/21 05:19:38;;;;;;;11.32;10.13;;;;;;;-1.05;99.54;92869.22;2094701;28;20544;-83
2021/04/21 05:21:22;;;;;;;11.60;9.85;;;;;;;-0.98;100.00;92873.06;2105701;28;20791;-83
2021/04/21 05:22:28;;;;;;;24.73;17.75;;;;;;;-0.93;100.00;92883.25;2083902;28;20029;-83